sensor_id;sensor_type;location;lat;lon;timestamp;P1;durP1;ratioP1;P2;durP2;ratioP2
37971;SDS011;23794;48.234;8.344;2022-11-20T00:00:51;9.50;;;6.30;;
37971;SDS011;23794;48.234;8.344;2022-11-20T00:03:18;12.73;;;8.23;;
37971;SDS011;23794;48.234;8.344;2022-11-20T00:05:45;11.45;;;7.13;;
37971;SDS011;23794;48.234;8.344;2022-11-20T00:08:12;9.48;;;5.63;;
37971;SDS011;23794;48.234;8.344;2022-11-20T00:10:39;7.57;;;4.75;;
37971;SDS011;23794;48.234;8.344;2022-11-20T00:13:06;6.57;;;4.60;;
37971;SDS011;23794;48.234;8.344;2022-11-20T00:15:33;5.95;;;3.63;;
37971;SDS011;23794;48.234;8.344;2022-11-20T00:18:00;5.25;;;3.50;;
37971;SDS011;23794;48.234;8.344;2022-11-20T00:20:27;6.05;;;3.65;;
37971;SDS011;23794;48.234;8.344;2022-11-20T00:22:53;5.03;;;3.22;;
37971;SDS011;23794;48.234;8.344;2022-11-20T00:25:20;4.82;;;3.20;;
37971;SDS011;23794;48.234;8.344;2022-11-20T00:27:47;5.10;;;3.40;;
37971;SDS011;23794;48.234;8.344;2022-11-20T00:30:14;4.47;;;3.13;;
37971;SDS011;23794;48.234;8.344;2022-11-20T00:32:40;4.72;;;3.03;;
37971;SDS011;23794;48.234;8.344;2022-11-20T00:35:07;3.50;;;2.60;;
37971;SDS011;23794;48.234;8.344;2022-11-20T00:37:34;4.00;;;3.28;;
37971;SDS011;23794;48.234;8.344;2022-11-20T00:40:01;4.35;;;2.92;;
37971;SDS011;23794;48.234;8.344;2022-11-20T00:42:27;3.50;;;2.50;;
37971;SDS011;23794;48.234;8.344;2022-11-20T00:44:54;4.15;;;2.20;;
37971;SDS011;23794;48.234;8.344;2022-11-20T00:47:21;5.57;;;2.90;;
37971;SDS011;23794;48.234;8.344;2022-11-20T00:49:47;5.30;;;2.78;;
37971;SDS011;23794;48.234;8.344;2022-11-20T00:52:14;3.40;;;2.53;;
37971;SDS011;23794;48.234;8.344;2022-11-20T00:54:41;5.10;;;2.35;;
37971;SDS011;23794;48.234;8.344;2022-11-20T00:57:07;3.42;;;2.60;;
37971;SDS011;23794;48.234;8.344;2022-11-20T00:59:34;4.47;;;3.00;;
37971;SDS011;23794;48.234;8.344;2022-11-20T01:02:01;4.65;;;3.08;;
37971;SDS011;23794;48.234;8.344;2022-11-20T01:04:28;4.10;;;3.05;;
37971;SDS011;23794;48.234;8.344;2022-11-20T01:06:54;4.13;;;2.60;;
37971;SDS011;23794;48.234;8.344;2022-11-20T01:09:21;16.02;;;5.90;;
37971;SDS011;23794;48.234;8.344;2022-11-20T01:11:48;5.97;;;3.42;;
37971;SDS011;23794;48.234;8.344;2022-11-20T01:14:16;10.10;;;4.90;;
37971;SDS011;23794;48.234;8.344;2022-11-20T01:16:46;5.88;;;3.10;;
37971;SDS011;23794;48.234;8.344;2022-11-20T01:19:16;4.90;;;3.00;;
37971;SDS011;23794;48.234;8.344;2022-11-20T01:21:47;4.75;;;2.83;;
37971;SDS011;23794;48.234;8.344;2022-11-20T01:24:16;8.15;;;3.97;;
37971;SDS011;23794;48.234;8.344;2022-11-20T01:26:45;24.58;;;9.57;;
37971;SDS011;23794;48.234;8.344;2022-11-20T01:29:15;22.38;;;10.02;;
37971;SDS011;23794;48.234;8.344;2022-11-20T01:31:44;25.38;;;9.75;;
37971;SDS011;23794;48.234;8.344;2022-11-20T01:34:12;20.38;;;8.73;;
37971;SDS011;23794;48.234;8.344;2022-11-20T01:36:41;13.65;;;6.78;;
37971;SDS011;23794;48.234;8.344;2022-11-20T01:39:13;15.57;;;8.63;;
37971;SDS011;23794;48.234;8.344;2022-11-20T01:41:46;11.32;;;5.28;;
37971;SDS011;23794;48.234;8.344;2022-11-20T01:48:02;11.57;;;4.80;;
37971;SDS011;23794;48.234;8.344;2022-11-20T01:50:15;19.67;;;6.70;;
37971;SDS011;23794;48.234;8.344;2022-11-20T01:52:46;17.02;;;7.78;;
37971;SDS011;23794;48.234;8.344;2022-11-20T01:55:19;25.13;;;12.20;;
37971;SDS011;23794;48.234;8.344;2022-11-20T01:57:50;26.52;;;11.40;;
37971;SDS011;23794;48.234;8.344;2022-11-20T02:00:18;24.73;;;12.80;;
37971;SDS011;23794;48.234;8.344;2022-11-20T02:02:57;18.83;;;10.77;;
37971;SDS011;23794;48.234;8.344;2022-11-20T02:05:38;13.02;;;7.47;;
37971;SDS011;23794;48.234;8.344;2022-11-20T02:08:11;14.10;;;7.90;;
37971;SDS011;23794;48.234;8.344;2022-11-20T02:10:39;11.93;;;6.53;;
37971;SDS011;23794;48.234;8.344;2022-11-20T02:13:06;15.50;;;8.73;;
37971;SDS011;23794;48.234;8.344;2022-11-20T02:15:51;11.95;;;7.95;;
37971;SDS011;23794;48.234;8.344;2022-11-20T02:18:19;9.95;;;5.95;;
37971;SDS011;23794;48.234;8.344;2022-11-20T02:20:47;10.52;;;6.13;;
37971;SDS011;23794;48.234;8.344;2022-11-20T02:25:52;9.25;;;5.55;;
37971;SDS011;23794;48.234;8.344;2022-11-20T02:28:21;16.17;;;8.52;;
37971;SDS011;23794;48.234;8.344;2022-11-20T02:30:48;16.30;;;8.40;;
37971;SDS011;23794;48.234;8.344;2022-11-20T02:33:15;12.07;;;6.53;;
37971;SDS011;23794;48.234;8.344;2022-11-20T02:35:43;10.52;;;5.82;;
37971;SDS011;23794;48.234;8.344;2022-11-20T02:38:13;7.78;;;4.28;;
37971;SDS011;23794;48.234;8.344;2022-11-20T02:43:49;13.75;;;8.23;;
37971;SDS011;23794;48.234;8.344;2022-11-20T02:46:15;15.98;;;8.70;;
37971;SDS011;23794;48.234;8.344;2022-11-20T02:48:42;11.38;;;5.32;;
37971;SDS011;23794;48.234;8.344;2022-11-20T02:51:09;5.05;;;3.60;;
37971;SDS011;23794;48.234;8.344;2022-11-20T02:53:36;4.93;;;3.22;;
37971;SDS011;23794;48.234;8.344;2022-11-20T02:56:02;8.25;;;2.80;;
37971;SDS011;23794;48.234;8.344;2022-11-20T02:58:29;5.10;;;3.35;;
37971;SDS011;23794;48.234;8.344;2022-11-20T03:00:56;5.25;;;3.40;;
37971;SDS011;23794;48.234;8.344;2022-11-20T03:03:23;5.57;;;3.60;;
37971;SDS011;23794;48.234;8.344;2022-11-20T03:05:50;7.00;;;3.38;;
37971;SDS011;23794;48.234;8.344;2022-11-20T03:08:16;6.68;;;2.53;;
37971;SDS011;23794;48.234;8.344;2022-11-20T03:10:43;6.03;;;3.25;;
37971;SDS011;23794;48.234;8.344;2022-11-20T03:13:10;3.15;;;2.20;;
37971;SDS011;23794;48.234;8.344;2022-11-20T03:15:37;7.22;;;2.60;;
37971;SDS011;23794;48.234;8.344;2022-11-20T03:18:04;6.72;;;2.55;;
37971;SDS011;23794;48.234;8.344;2022-11-20T03:20:31;5.80;;;2.58;;
37971;SDS011;23794;48.234;8.344;2022-11-20T03:22:59;8.50;;;3.65;;
37971;SDS011;23794;48.234;8.344;2022-11-20T03:25:27;13.18;;;4.55;;
37971;SDS011;23794;48.234;8.344;2022-11-20T03:27:54;6.88;;;3.42;;
37971;SDS011;23794;48.234;8.344;2022-11-20T03:30:21;3.83;;;2.50;;
37971;SDS011;23794;48.234;8.344;2022-11-20T03:32:55;5.93;;;3.20;;
37971;SDS011;23794;48.234;8.344;2022-11-20T03:35:22;7.25;;;4.05;;
37971;SDS011;23794;48.234;8.344;2022-11-20T03:37:49;7.63;;;3.63;;
37971;SDS011;23794;48.234;8.344;2022-11-20T03:40:16;10.20;;;4.50;;
37971;SDS011;23794;48.234;8.344;2022-11-20T03:42:43;13.55;;;6.10;;
37971;SDS011;23794;48.234;8.344;2022-11-20T03:45:16;6.88;;;3.58;;
37971;SDS011;23794;48.234;8.344;2022-11-20T03:47:44;6.57;;;4.07;;
37971;SDS011;23794;48.234;8.344;2022-11-20T03:50:12;7.57;;;3.75;;
37971;SDS011;23794;48.234;8.344;2022-11-20T03:52:40;5.32;;;2.42;;
37971;SDS011;23794;48.234;8.344;2022-11-20T03:55:08;4.13;;;2.45;;
37971;SDS011;23794;48.234;8.344;2022-11-20T03:57:35;7.15;;;3.65;;
37971;SDS011;23794;48.234;8.344;2022-11-20T04:00:02;5.47;;;3.05;;
37971;SDS011;23794;48.234;8.344;2022-11-20T04:02:30;5.82;;;3.95;;
37971;SDS011;23794;48.234;8.344;2022-11-20T04:04:57;5.80;;;3.35;;
37971;SDS011;23794;48.234;8.344;2022-11-20T04:07:23;3.10;;;1.80;;
37971;SDS011;23794;48.234;8.344;2022-11-20T04:09:50;9.90;;;5.43;;
37971;SDS011;23794;48.234;8.344;2022-11-20T04:12:17;4.50;;;2.28;;
37971;SDS011;23794;48.234;8.344;2022-11-20T04:14:43;5.63;;;2.88;;
37971;SDS011;23794;48.234;8.344;2022-11-20T04:17:10;2.53;;;1.35;;
37971;SDS011;23794;48.234;8.344;2022-11-20T04:19:37;4.45;;;2.22;;
37971;SDS011;23794;48.234;8.344;2022-11-20T04:22:04;5.03;;;2.25;;
37971;SDS011;23794;48.234;8.344;2022-11-20T04:24:30;3.95;;;2.20;;
37971;SDS011;23794;48.234;8.344;2022-11-20T04:26:57;3.80;;;1.70;;
37971;SDS011;23794;48.234;8.344;2022-11-20T04:29:24;5.28;;;2.00;;
37971;SDS011;23794;48.234;8.344;2022-11-20T04:31:50;3.63;;;2.22;;
37971;SDS011;23794;48.234;8.344;2022-11-20T04:34:17;2.90;;;2.00;;
37971;SDS011;23794;48.234;8.344;2022-11-20T04:36:44;2.90;;;1.90;;
37971;SDS011;23794;48.234;8.344;2022-11-20T04:39:12;6.55;;;3.05;;
37971;SDS011;23794;48.234;8.344;2022-11-20T04:41:40;2.85;;;1.83;;
37971;SDS011;23794;48.234;8.344;2022-11-20T04:44:07;2.92;;;2.08;;
37971;SDS011;23794;48.234;8.344;2022-11-20T04:46:35;3.13;;;1.92;;
37971;SDS011;23794;48.234;8.344;2022-11-20T04:49:04;3.05;;;1.88;;
37971;SDS011;23794;48.234;8.344;2022-11-20T04:51:32;3.50;;;1.95;;
37971;SDS011;23794;48.234;8.344;2022-11-20T04:53:59;3.92;;;2.75;;
37971;SDS011;23794;48.234;8.344;2022-11-20T04:56:26;3.58;;;2.28;;
37971;SDS011;23794;48.234;8.344;2022-11-20T04:58:53;3.60;;;2.20;;
37971;SDS011;23794;48.234;8.344;2022-11-20T05:01:20;4.05;;;2.80;;
37971;SDS011;23794;48.234;8.344;2022-11-20T05:03:49;6.55;;;3.30;;
37971;SDS011;23794;48.234;8.344;2022-11-20T05:06:18;6.15;;;2.50;;
37971;SDS011;23794;48.234;8.344;2022-11-20T05:08:46;2.50;;;1.60;;
37971;SDS011;23794;48.234;8.344;2022-11-20T05:11:14;3.97;;;1.75;;
37971;SDS011;23794;48.234;8.344;2022-11-20T05:13:51;2.22;;;1.55;;
37971;SDS011;23794;48.234;8.344;2022-11-20T05:16:19;2.95;;;1.90;;
37971;SDS011;23794;48.234;8.344;2022-11-20T05:18:48;2.40;;;1.80;;
37971;SDS011;23794;48.234;8.344;2022-11-20T05:21:16;6.28;;;2.35;;
37971;SDS011;23794;48.234;8.344;2022-11-20T05:23:43;5.20;;;1.98;;
37971;SDS011;23794;48.234;8.344;2022-11-20T05:26:17;2.95;;;1.95;;
37971;SDS011;23794;48.234;8.344;2022-11-20T05:28:47;2.92;;;1.65;;
37971;SDS011;23794;48.234;8.344;2022-11-20T05:31:16;2.35;;;1.67;;
37971;SDS011;23794;48.234;8.344;2022-11-20T05:33:53;4.30;;;1.52;;
37971;SDS011;23794;48.234;8.344;2022-11-20T05:36:21;3.08;;;2.78;;
37971;SDS011;23794;48.234;8.344;2022-11-20T05:38:48;2.10;;;1.90;;
37971;SDS011;23794;48.234;8.344;2022-11-20T05:41:17;2.08;;;1.60;;
37971;SDS011;23794;48.234;8.344;2022-11-20T05:43:45;1.92;;;1.27;;
37971;SDS011;23794;48.234;8.344;2022-11-20T05:46:14;2.78;;;1.92;;
37971;SDS011;23794;48.234;8.344;2022-11-20T05:48:43;1.48;;;1.35;;
37971;SDS011;23794;48.234;8.344;2022-11-20T05:51:11;1.85;;;1.35;;
37971;SDS011;23794;48.234;8.344;2022-11-20T05:53:43;1.35;;;0.80;;
37971;SDS011;23794;48.234;8.344;2022-11-20T05:56:17;2.20;;;1.23;;
37971;SDS011;23794;48.234;8.344;2022-11-20T05:58:46;1.00;;;0.80;;
37971;SDS011;23794;48.234;8.344;2022-11-20T06:01:17;4.07;;;1.27;;
37971;SDS011;23794;48.234;8.344;2022-11-20T06:03:46;3.50;;;1.00;;
37971;SDS011;23794;48.234;8.344;2022-11-20T06:06:14;3.28;;;0.63;;
37971;SDS011;23794;48.234;8.344;2022-11-20T06:08:42;1.63;;;0.95;;
37971;SDS011;23794;48.234;8.344;2022-11-20T06:11:10;1.15;;;0.98;;
37971;SDS011;23794;48.234;8.344;2022-11-20T06:13:38;1.80;;;1.10;;
37971;SDS011;23794;48.234;8.344;2022-11-20T06:16:08;1.95;;;1.15;;
37971;SDS011;23794;48.234;8.344;2022-11-20T06:18:36;2.92;;;1.00;;
37971;SDS011;23794;48.234;8.344;2022-11-20T06:21:06;4.10;;;1.52;;
37971;SDS011;23794;48.234;8.344;2022-11-20T06:23:34;2.22;;;1.33;;
37971;SDS011;23794;48.234;8.344;2022-11-20T06:26:02;1.38;;;0.98;;
37971;SDS011;23794;48.234;8.344;2022-11-20T06:28:29;2.88;;;1.10;;
37971;SDS011;23794;48.234;8.344;2022-11-20T06:30:57;1.67;;;1.20;;
37971;SDS011;23794;48.234;8.344;2022-11-20T06:33:24;3.13;;;0.82;;
37971;SDS011;23794;48.234;8.344;2022-11-20T06:35:51;2.65;;;0.90;;
37971;SDS011;23794;48.234;8.344;2022-11-20T06:38:25;1.55;;;0.85;;
37971;SDS011;23794;48.234;8.344;2022-11-20T06:40:53;1.30;;;0.82;;
37971;SDS011;23794;48.234;8.344;2022-11-20T06:43:20;2.22;;;1.08;;
37971;SDS011;23794;48.234;8.344;2022-11-20T06:45:51;1.90;;;1.00;;
37971;SDS011;23794;48.234;8.344;2022-11-20T06:48:19;1.90;;;1.00;;
37971;SDS011;23794;48.234;8.344;2022-11-20T06:50:46;3.20;;;0.70;;
37971;SDS011;23794;48.234;8.344;2022-11-20T06:53:13;3.13;;;1.30;;
37971;SDS011;23794;48.234;8.344;2022-11-20T06:55:46;2.60;;;0.93;;
37971;SDS011;23794;48.234;8.344;2022-11-20T06:58:14;1.65;;;1.10;;
37971;SDS011;23794;48.234;8.344;2022-11-20T07:00:42;2.28;;;1.05;;
37971;SDS011;23794;48.234;8.344;2022-11-20T07:03:09;1.63;;;0.95;;
37971;SDS011;23794;48.234;8.344;2022-11-20T07:05:37;0.68;;;0.50;;
37971;SDS011;23794;48.234;8.344;2022-11-20T07:08:07;1.90;;;1.00;;
37971;SDS011;23794;48.234;8.344;2022-11-20T07:10:34;2.60;;;1.10;;
37971;SDS011;23794;48.234;8.344;2022-11-20T07:13:01;2.58;;;1.17;;
37971;SDS011;23794;48.234;8.344;2022-11-20T07:15:28;3.28;;;1.30;;
37971;SDS011;23794;48.234;8.344;2022-11-20T07:17:58;1.27;;;0.95;;
37971;SDS011;23794;48.234;8.344;2022-11-20T07:20:25;2.10;;;1.40;;
37971;SDS011;23794;48.234;8.344;2022-11-20T07:22:53;3.10;;;1.42;;
37971;SDS011;23794;48.234;8.344;2022-11-20T07:25:24;3.05;;;1.77;;
37971;SDS011;23794;48.234;8.344;2022-11-20T07:27:52;2.67;;;1.75;;
37971;SDS011;23794;48.234;8.344;2022-11-20T07:30:22;2.53;;;1.35;;
37971;SDS011;23794;48.234;8.344;2022-11-20T07:32:52;2.35;;;1.80;;
37971;SDS011;23794;48.234;8.344;2022-11-20T07:35:19;2.03;;;1.10;;
37971;SDS011;23794;48.234;8.344;2022-11-20T07:37:46;1.30;;;0.93;;
37971;SDS011;23794;48.234;8.344;2022-11-20T07:40:15;1.33;;;0.90;;
37971;SDS011;23794;48.234;8.344;2022-11-20T07:42:52;1.20;;;0.88;;
37971;SDS011;23794;48.234;8.344;2022-11-20T07:45:21;1.23;;;0.80;;
37971;SDS011;23794;48.234;8.344;2022-11-20T07:47:49;1.10;;;0.75;;
37971;SDS011;23794;48.234;8.344;2022-11-20T07:50:17;1.48;;;0.60;;
37971;SDS011;23794;48.234;8.344;2022-11-20T07:52:44;0.63;;;0.50;;
37971;SDS011;23794;48.234;8.344;2022-11-20T07:55:11;0.75;;;0.60;;
37971;SDS011;23794;48.234;8.344;2022-11-20T07:57:38;1.40;;;0.57;;
37971;SDS011;23794;48.234;8.344;2022-11-20T08:00:07;1.52;;;0.70;;
37971;SDS011;23794;48.234;8.344;2022-11-20T08:02:38;2.67;;;0.77;;
37971;SDS011;23794;48.234;8.344;2022-11-20T08:05:06;1.52;;;0.82;;
37971;SDS011;23794;48.234;8.344;2022-11-20T08:07:35;1.42;;;0.90;;
37971;SDS011;23794;48.234;8.344;2022-11-20T08:10:04;1.30;;;0.82;;
37971;SDS011;23794;48.234;8.344;2022-11-20T08:12:31;1.75;;;1.00;;
37971;SDS011;23794;48.234;8.344;2022-11-20T08:15:17;0.90;;;0.70;;
37971;SDS011;23794;48.234;8.344;2022-11-20T08:17:44;1.38;;;0.80;;
37971;SDS011;23794;48.234;8.344;2022-11-20T08:20:31;1.17;;;0.70;;
37971;SDS011;23794;48.234;8.344;2022-11-20T08:22:59;1.50;;;0.93;;
37971;SDS011;23794;48.234;8.344;2022-11-20T08:27:57;2.17;;;1.08;;
37971;SDS011;23794;48.234;8.344;2022-11-20T08:33:00;1.75;;;1.00;;
37971;SDS011;23794;48.234;8.344;2022-11-20T08:35:32;1.83;;;1.05;;
37971;SDS011;23794;48.234;8.344;2022-11-20T08:37:59;3.33;;;1.13;;
37971;SDS011;23794;48.234;8.344;2022-11-20T08:40:25;1.10;;;0.68;;
37971;SDS011;23794;48.234;8.344;2022-11-20T08:42:52;1.15;;;0.77;;
37971;SDS011;23794;48.234;8.344;2022-11-20T08:45:19;1.70;;;0.88;;
37971;SDS011;23794;48.234;8.344;2022-11-20T08:47:46;1.48;;;1.10;;
37971;SDS011;23794;48.234;8.344;2022-11-20T08:50:14;1.02;;;0.60;;
37971;SDS011;23794;48.234;8.344;2022-11-20T08:52:42;1.48;;;0.77;;
37971;SDS011;23794;48.234;8.344;2022-11-20T08:55:09;1.77;;;0.90;;
37971;SDS011;23794;48.234;8.344;2022-11-20T08:57:36;1.33;;;0.80;;
37971;SDS011;23794;48.234;8.344;2022-11-20T09:00:04;2.00;;;0.90;;
37971;SDS011;23794;48.234;8.344;2022-11-20T09:02:32;0.80;;;0.60;;
37971;SDS011;23794;48.234;8.344;2022-11-20T09:05:00;1.23;;;0.63;;
37971;SDS011;23794;48.234;8.344;2022-11-20T09:07:28;1.27;;;0.90;;
37971;SDS011;23794;48.234;8.344;2022-11-20T09:09:56;1.58;;;0.88;;
37971;SDS011;23794;48.234;8.344;2022-11-20T09:12:48;2.40;;;1.60;;
37971;SDS011;23794;48.234;8.344;2022-11-20T09:15:15;1.10;;;0.75;;
37971;SDS011;23794;48.234;8.344;2022-11-20T09:17:42;2.20;;;0.88;;
37971;SDS011;23794;48.234;8.344;2022-11-20T09:20:16;1.52;;;0.88;;
37971;SDS011;23794;48.234;8.344;2022-11-20T09:22:43;2.83;;;0.70;;
37971;SDS011;23794;48.234;8.344;2022-11-20T09:25:09;1.27;;;0.82;;
37971;SDS011;23794;48.234;8.344;2022-11-20T09:27:36;1.08;;;0.80;;
37971;SDS011;23794;48.234;8.344;2022-11-20T09:30:03;2.15;;;0.80;;
37971;SDS011;23794;48.234;8.344;2022-11-20T09:32:31;0.90;;;0.70;;
37971;SDS011;23794;48.234;8.344;2022-11-20T09:34:57;1.33;;;0.70;;
37971;SDS011;23794;48.234;8.344;2022-11-20T09:37:27;0.98;;;0.85;;
37971;SDS011;23794;48.234;8.344;2022-11-20T09:39:54;0.90;;;0.70;;
37971;SDS011;23794;48.234;8.344;2022-11-20T09:42:41;0.85;;;0.55;;
37971;SDS011;23794;48.234;8.344;2022-11-20T09:45:15;0.75;;;0.60;;
37971;SDS011;23794;48.234;8.344;2022-11-20T09:47:49;0.80;;;0.60;;
37971;SDS011;23794;48.234;8.344;2022-11-20T09:53:51;1.33;;;0.80;;
37971;SDS011;23794;48.234;8.344;2022-11-20T09:55:48;0.75;;;0.60;;
37971;SDS011;23794;48.234;8.344;2022-11-20T09:58:17;1.27;;;0.88;;
37971;SDS011;23794;48.234;8.344;2022-11-20T10:00:56;1.98;;;0.90;;
37971;SDS011;23794;48.234;8.344;2022-11-20T10:04:08;0.85;;;0.57;;
37971;SDS011;23794;48.234;8.344;2022-11-20T10:06:34;1.30;;;0.82;;
37971;SDS011;23794;48.234;8.344;2022-11-20T10:14:35;2.45;;;0.80;;
37971;SDS011;23794;48.234;8.344;2022-11-20T10:17:24;3.20;;;1.23;;
37971;SDS011;23794;48.234;8.344;2022-11-20T10:26:01;4.22;;;1.52;;
37971;SDS011;23794;48.234;8.344;2022-11-20T10:28:36;3.00;;;1.52;;
37971;SDS011;23794;48.234;8.344;2022-11-20T10:31:11;2.78;;;1.60;;
37971;SDS011;23794;48.234;8.344;2022-11-20T10:33:44;2.22;;;1.27;;
37971;SDS011;23794;48.234;8.344;2022-11-20T10:36:40;4.77;;;1.63;;
37971;SDS011;23794;48.234;8.344;2022-11-20T10:39:16;4.95;;;1.73;;
37971;SDS011;23794;48.234;8.344;2022-11-20T10:41:45;3.90;;;1.50;;
37971;SDS011;23794;48.234;8.344;2022-11-20T10:44:19;3.03;;;1.35;;
37971;SDS011;23794;48.234;8.344;2022-11-20T10:47:13;2.40;;;1.23;;
37971;SDS011;23794;48.234;8.344;2022-11-20T10:49:42;3.15;;;1.17;;
37971;SDS011;23794;48.234;8.344;2022-11-20T10:54:58;3.20;;;1.90;;
37971;SDS011;23794;48.234;8.344;2022-11-20T10:57:46;2.33;;;1.35;;
37971;SDS011;23794;48.234;8.344;2022-11-20T11:00:30;1.70;;;1.05;;
37971;SDS011;23794;48.234;8.344;2022-11-20T11:02:57;2.72;;;1.15;;
37971;SDS011;23794;48.234;8.344;2022-11-20T11:05:53;2.92;;;1.40;;
37971;SDS011;23794;48.234;8.344;2022-11-20T11:08:22;3.72;;;1.25;;
37971;SDS011;23794;48.234;8.344;2022-11-20T11:11:02;2.35;;;1.30;;
37971;SDS011;23794;48.234;8.344;2022-11-20T11:13:41;1.50;;;1.10;;
37971;SDS011;23794;48.234;8.344;2022-11-20T11:16:16;1.85;;;1.35;;
37971;SDS011;23794;48.234;8.344;2022-11-20T11:19:03;3.38;;;1.30;;
37971;SDS011;23794;48.234;8.344;2022-11-20T11:21:31;1.77;;;1.25;;
37971;SDS011;23794;48.234;8.344;2022-11-20T11:23:59;1.50;;;1.30;;
37971;SDS011;23794;48.234;8.344;2022-11-20T11:29:25;5.15;;;1.45;;
37971;SDS011;23794;48.234;8.344;2022-11-20T11:34:32;3.92;;;1.88;;
37971;SDS011;23794;48.234;8.344;2022-11-20T11:36:59;5.25;;;2.10;;
37971;SDS011;23794;48.234;8.344;2022-11-20T11:39:28;3.55;;;2.13;;
37971;SDS011;23794;48.234;8.344;2022-11-20T11:41:57;5.00;;;2.30;;
37971;SDS011;23794;48.234;8.344;2022-11-20T11:44:33;3.13;;;1.77;;
37971;SDS011;23794;48.234;8.344;2022-11-20T11:52:48;3.75;;;2.38;;
37971;SDS011;23794;48.234;8.344;2022-11-20T11:55:40;3.38;;;2.10;;
37971;SDS011;23794;48.234;8.344;2022-11-20T12:04:03;3.40;;;2.03;;
37971;SDS011;23794;48.234;8.344;2022-11-20T12:06:44;5.15;;;2.13;;
37971;SDS011;23794;48.234;8.344;2022-11-20T12:09:16;4.55;;;2.67;;
37971;SDS011;23794;48.234;8.344;2022-11-20T12:17:04;3.08;;;1.50;;
37971;SDS011;23794;48.234;8.344;2022-11-20T12:19:33;3.47;;;1.45;;
37971;SDS011;23794;48.234;8.344;2022-11-20T12:30:41;2.03;;;0.93;;
37971;SDS011;23794;48.234;8.344;2022-11-20T12:33:33;1.65;;;1.10;;
37971;SDS011;23794;48.234;8.344;2022-11-20T12:41:11;2.00;;;1.08;;
37971;SDS011;23794;48.234;8.344;2022-11-20T12:50:08;1.77;;;1.00;;
37971;SDS011;23794;48.234;8.344;2022-11-20T12:52:47;3.53;;;1.48;;
37971;SDS011;23794;48.234;8.344;2022-11-20T12:58:29;1.00;;;0.68;;
37971;SDS011;23794;48.234;8.344;2022-11-20T13:01:24;2.70;;;1.10;;
37971;SDS011;23794;48.234;8.344;2022-11-20T13:04:08;2.58;;;0.88;;
37971;SDS011;23794;48.234;8.344;2022-11-20T13:06:50;2.28;;;0.70;;
37971;SDS011;23794;48.234;8.344;2022-11-20T13:09:19;1.83;;;0.93;;
37971;SDS011;23794;48.234;8.344;2022-11-20T13:14:37;2.28;;;0.95;;
37971;SDS011;23794;48.234;8.344;2022-11-20T13:17:11;1.30;;;0.70;;
37971;SDS011;23794;48.234;8.344;2022-11-20T13:19:54;1.95;;;1.23;;
37971;SDS011;23794;48.234;8.344;2022-11-20T13:22:25;1.40;;;0.75;;
37971;SDS011;23794;48.234;8.344;2022-11-20T13:30:50;3.58;;;1.27;;
37971;SDS011;23794;48.234;8.344;2022-11-20T13:33:27;1.05;;;0.70;;
37971;SDS011;23794;48.234;8.344;2022-11-20T13:38:46;2.05;;;0.90;;
37971;SDS011;23794;48.234;8.344;2022-11-20T13:41:28;1.60;;;0.73;;
37971;SDS011;23794;48.234;8.344;2022-11-20T13:44:06;1.45;;;0.98;;
37971;SDS011;23794;48.234;8.344;2022-11-20T13:46:54;2.63;;;0.85;;
37971;SDS011;23794;48.234;8.344;2022-11-20T13:55:02;2.55;;;1.02;;
37971;SDS011;23794;48.234;8.344;2022-11-20T14:00:24;4.80;;;2.88;;
37971;SDS011;23794;48.234;8.344;2022-11-20T14:05:50;3.30;;;0.70;;
37971;SDS011;23794;48.234;8.344;2022-11-20T14:08:42;2.08;;;0.98;;
37971;SDS011;23794;48.234;8.344;2022-11-20T14:11:19;1.65;;;0.90;;
37971;SDS011;23794;48.234;8.344;2022-11-20T14:14:04;1.42;;;0.77;;
37971;SDS011;23794;48.234;8.344;2022-11-20T14:16:46;3.92;;;1.77;;
37971;SDS011;23794;48.234;8.344;2022-11-20T14:21:52;1.52;;;0.68;;
37971;SDS011;23794;48.234;8.344;2022-11-20T14:24:21;4.80;;;1.42;;
37971;SDS011;23794;48.234;8.344;2022-11-20T14:26:49;3.45;;;2.15;;
37971;SDS011;23794;48.234;8.344;2022-11-20T14:29:22;5.45;;;1.80;;
37971;SDS011;23794;48.234;8.344;2022-11-20T14:31:54;3.33;;;1.52;;
37971;SDS011;23794;48.234;8.344;2022-11-20T14:34:26;1.88;;;1.00;;
37971;SDS011;23794;48.234;8.344;2022-11-20T14:36:56;20.58;;;10.90;;
37971;SDS011;23794;48.234;8.344;2022-11-20T14:39:32;53.15;;;33.38;;
37971;SDS011;23794;48.234;8.344;2022-11-20T14:42:16;4.30;;;2.40;;
37971;SDS011;23794;48.234;8.344;2022-11-20T14:44:50;11.43;;;6.07;;
37971;SDS011;23794;48.234;8.344;2022-11-20T14:47:27;5.63;;;2.92;;
37971;SDS011;23794;48.234;8.344;2022-11-20T14:49:57;1.95;;;1.10;;
37971;SDS011;23794;48.234;8.344;2022-11-20T14:52:31;4.72;;;1.45;;
37971;SDS011;23794;48.234;8.344;2022-11-20T14:54:58;3.40;;;1.35;;
37971;SDS011;23794;48.234;8.344;2022-11-20T14:57:32;3.22;;;1.17;;
37971;SDS011;23794;48.234;8.344;2022-11-20T15:00:05;2.53;;;1.08;;
37971;SDS011;23794;48.234;8.344;2022-11-20T15:02:40;2.42;;;1.10;;
37971;SDS011;23794;48.234;8.344;2022-11-20T15:05:08;2.22;;;1.15;;
37971;SDS011;23794;48.234;8.344;2022-11-20T15:07:38;3.42;;;1.00;;
37971;SDS011;23794;48.234;8.344;2022-11-20T15:12:47;3.08;;;1.73;;
37971;SDS011;23794;48.234;8.344;2022-11-20T15:17:47;3.47;;;1.75;;
37971;SDS011;23794;48.234;8.344;2022-11-20T15:20:14;3.38;;;1.33;;
37971;SDS011;23794;48.234;8.344;2022-11-20T15:22:43;2.58;;;1.30;;
37971;SDS011;23794;48.234;8.344;2022-11-20T15:25:19;3.58;;;1.30;;
37971;SDS011;23794;48.234;8.344;2022-11-20T15:27:47;3.75;;;0.98;;
37971;SDS011;23794;48.234;8.344;2022-11-20T15:30:19;2.00;;;1.05;;
37971;SDS011;23794;48.234;8.344;2022-11-20T15:32:47;2.47;;;1.10;;
37971;SDS011;23794;48.234;8.344;2022-11-20T15:35:15;2.92;;;1.15;;
37971;SDS011;23794;48.234;8.344;2022-11-20T15:37:42;2.65;;;1.23;;
37971;SDS011;23794;48.234;8.344;2022-11-20T15:40:09;2.03;;;1.05;;
37971;SDS011;23794;48.234;8.344;2022-11-20T15:42:36;2.58;;;1.15;;
37971;SDS011;23794;48.234;8.344;2022-11-20T15:45:03;1.95;;;1.35;;
37971;SDS011;23794;48.234;8.344;2022-11-20T15:47:35;3.97;;;1.48;;
37971;SDS011;23794;48.234;8.344;2022-11-20T15:52:29;3.58;;;1.00;;
37971;SDS011;23794;48.234;8.344;2022-11-20T15:55:09;1.60;;;1.02;;
37971;SDS011;23794;48.234;8.344;2022-11-20T15:57:36;2.08;;;1.10;;
37971;SDS011;23794;48.234;8.344;2022-11-20T16:00:03;2.00;;;1.13;;
37971;SDS011;23794;48.234;8.344;2022-11-20T16:02:35;2.70;;;0.80;;
37971;SDS011;23794;48.234;8.344;2022-11-20T16:05:03;1.00;;;0.70;;
37971;SDS011;23794;48.234;8.344;2022-11-20T16:07:30;2.42;;;1.25;;
37971;SDS011;23794;48.234;8.344;2022-11-20T16:09:57;4.95;;;1.30;;
37971;SDS011;23794;48.234;8.344;2022-11-20T16:12:24;2.00;;;1.10;;
37971;SDS011;23794;48.234;8.344;2022-11-20T16:15:10;3.47;;;1.38;;
37971;SDS011;23794;48.234;8.344;2022-11-20T16:17:55;2.53;;;0.80;;
37971;SDS011;23794;48.234;8.344;2022-11-20T16:20:22;2.53;;;1.08;;
37971;SDS011;23794;48.234;8.344;2022-11-20T16:22:49;1.85;;;1.00;;
37971;SDS011;23794;48.234;8.344;2022-11-20T16:25:15;2.47;;;1.17;;
37971;SDS011;23794;48.234;8.344;2022-11-20T16:27:42;3.33;;;2.40;;
37971;SDS011;23794;48.234;8.344;2022-11-20T16:30:09;4.28;;;2.17;;
37971;SDS011;23794;48.234;8.344;2022-11-20T16:32:36;2.72;;;0.85;;
37971;SDS011;23794;48.234;8.344;2022-11-20T16:35:05;1.52;;;0.70;;
37971;SDS011;23794;48.234;8.344;2022-11-20T16:37:33;2.60;;;1.10;;
37971;SDS011;23794;48.234;8.344;2022-11-20T16:40:00;2.33;;;1.55;;
37971;SDS011;23794;48.234;8.344;2022-11-20T16:42:27;2.35;;;1.35;;
37971;SDS011;23794;48.234;8.344;2022-11-20T16:44:53;4.65;;;2.30;;
37971;SDS011;23794;48.234;8.344;2022-11-20T16:47:20;7.45;;;3.22;;
37971;SDS011;23794;48.234;8.344;2022-11-20T16:49:47;5.82;;;4.25;;
37971;SDS011;23794;48.234;8.344;2022-11-20T16:52:14;8.02;;;4.38;;
37971;SDS011;23794;48.234;8.344;2022-11-20T16:54:41;6.53;;;4.18;;